createdAt,value
2018-08-04T00:01:28.609Z,25.60
2018-08-04T00:03:57.775Z,25.61
2018-08-04T00:06:27.041Z,25.53
2018-08-04T00:08:56.271Z,25.42
2018-08-04T00:11:26.136Z,25.30
2018-08-04T00:13:55.829Z,25.50
2018-08-04T00:16:24.963Z,25.37
2018-08-04T00:18:53.855Z,25.04
2018-08-04T00:21:23.071Z,25.17
2018-08-04T00:23:52.566Z,25.05
2018-08-04T00:26:22.097Z,25.09
2018-08-04T00:28:51.467Z,24.92
2018-08-04T00:31:21.680Z,24.86
2018-08-04T00:33:51.133Z,24.70
2018-08-04T00:36:20.230Z,24.70
2018-08-04T00:38:49.366Z,24.71
2018-08-04T00:41:18.434Z,24.69
2018-08-04T00:43:47.963Z,24.78
2018-08-04T00:46:17.336Z,24.71
2018-08-04T00:48:46.786Z,24.71
2018-08-04T00:51:15.829Z,24.83
2018-08-04T00:53:44.975Z,24.80
2018-08-04T00:56:14.035Z,24.83
2018-08-04T00:58:43.217Z,24.74
2018-08-04T01:01:12.438Z,24.76
2018-08-04T01:03:42.350Z,24.72
2018-08-04T01:06:11.626Z,24.59
2018-08-04T01:08:41.557Z,24.53
2018-08-04T01:11:10.794Z,24.47
2018-08-04T01:13:39.955Z,24.41
2018-08-04T01:16:09.258Z,24.50
2018-08-04T01:18:38.552Z,24.33
2018-08-04T01:21:07.642Z,24.49
2018-08-04T01:23:36.756Z,24.29
2018-08-04T01:26:06.247Z,24.43
2018-08-04T01:28:35.218Z,24.29
2018-08-04T01:31:04.448Z,24.33
2018-08-04T01:33:33.564Z,24.40
2018-08-04T01:36:03.054Z,24.41
2018-08-04T01:38:32.552Z,24.40
2018-08-04T01:41:01.652Z,24.34
2018-08-04T01:43:31.393Z,24.21
2018-08-04T01:46:00.558Z,24.18
2018-08-04T01:48:30.469Z,24.27
2018-08-04T01:51:00.019Z,24.09
2018-08-04T01:53:29.066Z,24.08
2018-08-04T01:55:58.282Z,24.08
2018-08-04T01:58:28.010Z,23.83
2018-08-04T02:00:57.317Z,23.90
2018-08-04T02:03:26.436Z,23.91
2018-08-04T02:05:55.656Z,24.02
2018-08-04T02:08:24.591Z,24.03
2018-08-04T02:10:53.846Z,24.12
2018-08-04T02:13:23.246Z,24.15
2018-08-04T02:15:52.475Z,24.14
2018-08-04T02:18:22.386Z,24.03
2018-08-04T02:20:51.686Z,24.15
2018-08-04T02:23:20.770Z,24.13
2018-08-04T02:25:49.866Z,24.01
2018-08-04T02:28:18.964Z,23.99
2018-08-04T02:30:48.055Z,23.77
2018-08-04T02:33:17.137Z,23.95
2018-08-04T02:35:46.119Z,23.69
2018-08-04T02:38:15.558Z,23.65
2018-08-04T02:40:44.638Z,23.32
2018-08-04T02:43:13.743Z,23.34
2018-08-04T02:45:43.007Z,23.22
2018-08-04T02:48:12.111Z,23.30
2018-08-04T02:50:41.805Z,23.51
2018-08-04T02:53:10.908Z,23.48
2018-08-04T02:55:40.439Z,23.32
2018-08-04T02:58:09.519Z,23.55
2018-08-04T03:00:38.492Z,23.53
2018-08-04T03:03:07.703Z,23.55
2018-08-04T03:05:36.851Z,23.49
2018-08-04T03:08:06.299Z,23.47
2018-08-04T03:10:35.415Z,23.55
2018-08-04T03:13:04.498Z,23.66
2018-08-04T03:15:34.011Z,23.57
2018-08-04T03:18:03.527Z,23.68
2018-08-04T03:20:32.645Z,23.69
2018-08-04T03:23:01.757Z,23.76
2018-08-04T03:25:30.799Z,23.90
2018-08-04T03:28:00.503Z,23.93
2018-08-04T03:30:30.459Z,24.02
2018-08-04T03:33:00.016Z,24.02
2018-08-04T03:35:29.256Z,23.98
2018-08-04T03:37:59.138Z,23.93
2018-08-04T03:40:28.091Z,23.97
2018-08-04T03:42:57.158Z,23.95
2018-08-04T03:45:26.479Z,23.81
2018-08-04T03:47:55.826Z,23.76
2018-08-04T03:50:25.087Z,23.70
2018-08-04T03:52:54.020Z,23.80
2018-08-04T03:55:23.279Z,23.75
2018-08-04T03:57:52.352Z,23.56
2018-08-04T04:00:22.058Z,23.61
2018-08-04T04:02:51.152Z,23.61
2018-08-04T04:05:20.151Z,23.65
2018-08-04T04:07:49.699Z,23.71
2018-08-04T04:10:18.622Z,23.59
2018-08-04T04:12:47.701Z,23.38
2018-08-04T04:15:16.831Z,23.70
2018-08-04T04:17:48.757Z,23.61
2018-08-04T04:20:19.787Z,23.66
2018-08-04T04:22:49.710Z,23.78
2018-08-04T04:25:18.952Z,23.64
2018-08-04T04:27:48.461Z,23.53
2018-08-04T04:30:17.770Z,23.48
2018-08-04T04:32:47.242Z,23.59
2018-08-04T04:35:16.342Z,23.78
2018-08-04T04:37:45.779Z,23.83
2018-08-04T04:40:14.741Z,23.73
2018-08-04T04:42:44.098Z,23.70
2018-08-04T04:45:13.173Z,23.61
2018-08-04T04:47:42.410Z,23.41
2018-08-04T04:50:11.550Z,23.44
2018-08-04T04:52:40.624Z,23.59
2018-08-04T04:55:10.698Z,23.52
2018-08-04T04:57:39.696Z,23.67
2018-08-04T05:00:08.994Z,23.62
2018-08-04T05:02:38.671Z,23.85
2018-08-04T05:05:08.962Z,23.93
2018-08-04T05:07:38.642Z,23.86
2018-08-04T05:10:08.604Z,23.91
2018-08-04T05:12:37.602Z,23.97
2018-08-04T05:15:07.831Z,23.79
2018-08-04T05:17:37.151Z,23.58
2018-08-04T05:20:06.900Z,23.66
2018-08-04T05:22:36.379Z,23.81
2018-08-04T05:25:06.610Z,23.83
2018-08-04T05:27:35.547Z,23.78
2018-08-04T05:30:05.572Z,23.72
2018-08-04T05:32:35.211Z,23.90
2018-08-04T05:35:04.437Z,23.96
2018-08-04T05:37:34.459Z,24.03
2018-08-04T05:40:03.682Z,23.49
2018-08-04T05:42:33.182Z,23.87
2018-08-04T05:45:02.110Z,24.07
2018-08-04T05:47:31.357Z,24.19
2018-08-04T05:50:00.493Z,24.23
2018-08-04T05:52:29.565Z,24.35
2018-08-04T05:54:58.495Z,24.48
2018-08-04T05:57:27.943Z,24.53
2018-08-04T05:59:57.376Z,24.73
2018-08-04T06:02:26.359Z,24.84
2018-08-04T06:04:55.862Z,24.95
2018-08-04T06:07:24.790Z,24.92
2018-08-04T06:09:53.825Z,25.02
2018-08-04T06:12:23.300Z,25.04
2018-08-04T06:14:52.441Z,25.13
2018-08-04T06:17:22.136Z,25.13
2018-08-04T06:19:51.528Z,25.28
2018-08-04T06:22:20.730Z,25.36
2018-08-04T06:24:50.266Z,25.28
2018-08-04T06:27:19.325Z,25.29
2018-08-04T06:29:48.641Z,25.35
2018-08-04T06:32:17.702Z,25.59
2018-08-04T06:34:46.843Z,25.74
2018-08-04T06:37:15.922Z,25.80
2018-08-04T06:39:44.859Z,25.68
2018-08-04T06:42:13.899Z,25.69
2018-08-04T06:44:42.842Z,25.48
2018-08-04T06:47:12.631Z,25.83
2018-08-04T06:49:42.266Z,26.05
2018-08-04T06:52:11.356Z,26.13
2018-08-04T06:54:40.602Z,25.83
2018-08-04T06:57:09.665Z,25.88
2018-08-04T06:59:38.670Z,25.92
2018-08-04T07:02:07.897Z,26.24
2018-08-04T07:04:37.035Z,26.35
2018-08-04T07:07:07.007Z,26.40
2018-08-04T07:09:36.235Z,26.14
2018-08-04T07:12:05.354Z,26.42
2018-08-04T07:14:34.627Z,26.46
2018-08-04T07:17:03.762Z,26.66
2018-08-04T07:19:33.019Z,26.73
2018-08-04T07:22:02.590Z,26.71
2018-08-04T07:24:31.622Z,27.09
2018-08-04T07:27:00.808Z,27.25
2018-08-04T07:29:29.994Z,27.42
2018-08-04T07:31:58.959Z,27.25
2018-08-04T07:34:28.005Z,27.84
2018-08-04T07:36:57.696Z,28.55
2018-08-04T07:39:27.573Z,28.89
2018-08-04T07:41:56.879Z,27.95
2018-08-04T07:44:25.997Z,28.94
2018-08-04T07:46:55.097Z,29.12
2018-08-04T07:49:24.031Z,28.75
2018-08-04T07:51:53.072Z,29.02
2018-08-04T07:54:22.602Z,29.00
2018-08-04T07:56:51.697Z,29.66
2018-08-04T07:59:20.845Z,29.58
2018-08-04T08:01:50.095Z,30.26
2018-08-04T08:04:19.390Z,30.38
2018-08-04T08:06:48.492Z,30.08
2018-08-04T08:09:17.597Z,29.40
2018-08-04T08:11:46.847Z,29.72
2018-08-04T08:14:15.984Z,29.17
2018-08-04T08:16:45.062Z,29.16
2018-08-04T08:19:14.186Z,29.28
2018-08-04T08:21:43.233Z,29.47
2018-08-04T08:24:12.587Z,29.28
2018-08-04T08:26:41.707Z,29.04
2018-08-04T08:29:10.938Z,29.51
2018-08-04T08:31:40.122Z,29.74
2018-08-04T08:34:09.626Z,29.69
2018-08-04T08:36:39.023Z,29.86
2018-08-04T08:39:09.414Z,30.35
2018-08-04T08:41:38.422Z,30.81
2018-08-04T08:44:08.102Z,30.90
2018-08-04T08:46:37.096Z,31.56
2018-08-04T08:49:06.133Z,32.11
2018-08-04T08:51:35.239Z,32.68
2018-08-04T08:54:04.390Z,32.33
2018-08-04T08:56:33.290Z,31.57
2018-08-04T08:59:02.283Z,31.40
2018-08-04T09:01:31.973Z,31.87
2018-08-04T09:04:00.938Z,32.11
2018-08-04T09:06:29.935Z,31.79
2018-08-04T09:08:58.835Z,31.98
2018-08-04T09:11:28.070Z,33.59
2018-08-04T09:13:57.111Z,34.46
2018-08-04T09:16:26.250Z,34.67
2018-08-04T09:18:56.501Z,33.79
2018-08-04T09:21:26.044Z,33.09
2018-08-04T09:23:55.496Z,33.37
2018-08-04T09:26:24.674Z,33.28
2018-08-04T09:28:53.952Z,33.02
2018-08-04T09:31:23.036Z,32.86
2018-08-04T09:33:52.646Z,32.15
2018-08-04T09:36:21.881Z,32.19
2018-08-04T09:38:51.763Z,32.48
2018-08-04T09:41:20.719Z,33.34
2018-08-04T09:43:50.331Z,33.48
2018-08-04T09:46:19.261Z,34.31
2018-08-04T09:48:48.353Z,34.65
2018-08-04T09:51:17.444Z,34.27
2018-08-04T09:53:46.546Z,35.64
2018-08-04T09:56:16.238Z,36.18
2018-08-04T09:58:45.301Z,36.86
2018-08-04T10:01:19.855Z,38.42
2018-08-04T10:03:49.707Z,39.14
2018-08-04T10:06:18.942Z,38.49
2018-08-04T10:08:48.466Z,39.54
2018-08-04T10:11:17.477Z,37.69
2018-08-04T10:13:46.495Z,37.44
2018-08-04T10:16:16.210Z,37.42
2018-08-04T10:18:45.704Z,37.04
2018-08-04T10:21:14.933Z,36.51
2018-08-04T10:23:44.438Z,36.37
2018-08-04T10:26:13.763Z,37.27
2018-08-04T10:28:42.946Z,36.92
2018-08-04T10:31:12.192Z,38.52
2018-08-04T10:33:41.478Z,38.68
2018-08-04T10:36:10.578Z,38.57
2018-08-04T10:38:40.131Z,38.44
2018-08-04T10:41:09.181Z,38.77
2018-08-04T10:43:38.511Z,39.69
2018-08-04T10:46:08.192Z,39.23
2018-08-04T10:48:37.803Z,40.65
2018-08-04T10:51:07.627Z,38.54
2018-08-04T10:53:37.109Z,39.93
2018-08-04T10:56:06.880Z,38.93
2018-08-04T10:58:36.362Z,38.87
2018-08-04T11:01:05.642Z,38.64
2018-08-04T11:03:35.317Z,39.27
2018-08-04T11:06:04.442Z,39.16
2018-08-04T11:08:34.095Z,38.15
2018-08-04T11:11:03.282Z,38.60
2018-08-04T11:13:32.710Z,37.95
2018-08-04T11:16:02.012Z,37.15
2018-08-04T11:18:31.763Z,37.19
2018-08-04T11:21:02.028Z,37.36
2018-08-04T11:23:31.915Z,36.15
2018-08-04T11:26:01.108Z,36.28
2018-08-04T11:28:30.422Z,36.53
2018-08-04T11:31:00.177Z,36.66
2018-08-04T11:33:29.794Z,36.56
2018-08-04T11:35:59.337Z,35.15
2018-08-04T11:38:29.149Z,35.51
2018-08-04T11:40:58.374Z,35.30
2018-08-04T11:43:27.618Z,35.56
2018-08-04T11:45:56.561Z,35.46
2018-08-04T11:48:26.015Z,35.62
2018-08-04T11:50:55.291Z,35.73
2018-08-04T11:53:24.818Z,35.21
2018-08-04T11:55:53.892Z,35.44
2018-08-04T11:58:23.621Z,35.60
2018-08-04T12:00:52.759Z,35.56
2018-08-04T12:03:22.018Z,35.59
2018-08-04T12:05:51.478Z,35.16
2018-08-04T12:08:20.467Z,35.15
2018-08-04T12:10:49.714Z,35.52
2018-08-04T12:13:18.823Z,35.40
2018-08-04T12:15:48.310Z,35.60
2018-08-04T12:18:17.862Z,35.69
2018-08-04T12:20:47.205Z,35.18
2018-08-04T12:23:16.470Z,35.34
2018-08-04T12:25:45.714Z,35.39
2018-08-04T12:28:15.694Z,35.50
2018-08-04T12:30:45.655Z,35.26
2018-08-04T12:33:15.331Z,35.42
2018-08-04T12:35:45.171Z,35.47
2018-08-04T12:38:14.344Z,34.98
2018-08-04T12:40:43.786Z,35.22
2018-08-04T12:43:13.450Z,35.21
2018-08-04T12:45:42.776Z,35.17
2018-08-04T12:48:12.330Z,35.26
2018-08-04T12:50:41.791Z,35.46
2018-08-04T12:53:11.467Z,35.42
2018-08-04T12:55:41.006Z,35.38
2018-08-04T12:58:11.103Z,35.15
2018-08-04T13:00:41.081Z,35.06
2018-08-04T13:03:10.575Z,35.46
2018-08-04T13:05:39.837Z,35.29
2018-08-04T13:08:09.766Z,35.22
2018-08-04T13:10:39.297Z,35.23
2018-08-04T13:13:08.755Z,35.17
2018-08-04T13:15:38.263Z,35.49
2018-08-04T13:18:07.787Z,35.54
2018-08-04T13:20:37.907Z,35.41
2018-08-04T13:23:06.987Z,35.41
2018-08-04T13:25:36.710Z,35.39
2018-08-04T13:28:07.062Z,35.50
2018-08-04T13:30:36.852Z,35.21
2018-08-04T13:33:06.065Z,35.15
2018-08-04T13:35:35.596Z,34.47
2018-08-04T13:38:04.865Z,34.89
2018-08-04T13:40:35.098Z,34.60
2018-08-04T13:43:04.301Z,34.99
2018-08-04T13:45:33.456Z,35.28
2018-08-04T13:48:03.306Z,35.45
2018-08-04T13:50:32.819Z,35.11
2018-08-04T13:53:02.071Z,35.51
2018-08-04T13:55:31.224Z,35.57
2018-08-04T13:58:00.690Z,35.52
2018-08-04T14:00:30.786Z,35.70
2018-08-04T14:03:00.303Z,35.57
2018-08-04T14:05:29.427Z,35.51
2018-08-04T14:07:58.744Z,35.26
2018-08-04T14:10:28.151Z,35.25
2018-08-04T14:12:57.747Z,35.29
2018-08-04T14:15:27.060Z,35.28
2018-08-04T14:17:56.718Z,35.08
2018-08-04T14:20:26.179Z,34.82
2018-08-04T14:22:55.216Z,35.21
2018-08-04T14:25:24.411Z,35.04
2018-08-04T14:27:53.796Z,34.85
2018-08-04T14:30:23.025Z,35.01
2018-08-04T14:32:52.139Z,35.35
2018-08-04T14:35:21.676Z,35.20
2018-08-04T14:37:51.156Z,35.19
2018-08-04T14:40:20.411Z,34.99
2018-08-04T14:42:49.590Z,34.71
2018-08-04T14:45:19.303Z,34.85
2018-08-04T14:47:49.099Z,34.83
2018-08-04T14:50:18.294Z,34.87
2018-08-04T14:52:47.513Z,34.87
2018-08-04T14:55:16.603Z,34.76
2018-08-04T14:57:45.733Z,34.71
2018-08-04T15:00:15.186Z,34.77
2018-08-04T15:02:44.814Z,34.85
2018-08-04T15:05:14.355Z,34.84
2018-08-04T15:07:43.995Z,34.95
2018-08-04T15:10:13.218Z,34.95
2018-08-04T15:12:42.169Z,34.67
2018-08-04T15:15:11.757Z,34.98
2018-08-04T15:17:41.379Z,34.83
2018-08-04T15:20:10.453Z,34.75
2018-08-04T15:22:40.031Z,34.81
2018-08-04T15:25:10.165Z,34.87
2018-08-04T15:27:40.770Z,34.85
2018-08-04T15:30:09.943Z,34.65
2018-08-04T15:32:39.478Z,34.73
2018-08-04T15:35:09.060Z,34.37
2018-08-04T15:37:38.204Z,34.39
2018-08-04T15:40:07.547Z,34.14
2018-08-04T15:42:37.005Z,34.22
2018-08-04T15:45:06.359Z,34.42
2018-08-04T15:47:36.060Z,34.54
2018-08-04T15:50:05.979Z,34.51
2018-08-04T15:52:35.215Z,34.41
2018-08-04T15:55:04.566Z,34.30
2018-08-04T15:57:33.732Z,34.28
2018-08-04T16:00:03.166Z,34.08
2018-08-04T16:02:32.459Z,33.96
2018-08-04T16:05:01.538Z,33.85
2018-08-04T16:07:30.987Z,33.95
2018-08-04T16:10:00.344Z,33.92
2018-08-04T16:12:29.278Z,33.92
2018-08-04T16:14:58.744Z,33.91
2018-08-04T16:17:28.283Z,34.02
2018-08-04T16:19:57.947Z,33.95
2018-08-04T16:22:27.463Z,33.90
2018-08-04T16:24:56.934Z,34.00
2018-08-04T16:27:26.042Z,33.82
2018-08-04T16:29:55.113Z,33.88
2018-08-04T16:32:24.101Z,33.91
2018-08-04T16:34:53.269Z,33.91
2018-08-04T16:37:22.628Z,33.63
2018-08-04T16:39:51.715Z,33.67
2018-08-04T16:42:20.926Z,33.72
2018-08-04T16:44:50.291Z,33.57
2018-08-04T16:47:19.554Z,33.54
2018-08-04T16:49:49.131Z,33.42
2018-08-04T16:52:19.058Z,33.36
2018-08-04T16:54:48.382Z,33.32
2018-08-04T16:57:17.859Z,33.17
2018-08-04T16:59:47.145Z,33.08
2018-08-04T17:02:16.251Z,33.08
2018-08-04T17:04:45.231Z,33.14
2018-08-04T17:07:14.643Z,33.07
2018-08-04T17:09:43.802Z,32.95
2018-08-04T17:12:12.879Z,32.91
2018-08-04T17:14:42.089Z,32.92
2018-08-04T17:17:11.267Z,32.96
2018-08-04T17:19:41.214Z,32.89
2018-08-04T17:22:10.450Z,32.84
2018-08-04T17:24:39.731Z,32.67
2018-08-04T17:27:09.079Z,32.50
2018-08-04T17:29:39.428Z,32.44
2018-08-04T17:32:12.970Z,32.38
2018-08-04T17:34:42.500Z,32.35
2018-08-04T17:37:11.963Z,32.13
2018-08-04T17:39:41.508Z,32.18
2018-08-04T17:42:10.994Z,32.19
2018-08-04T17:44:40.522Z,31.93
2018-08-04T17:47:10.007Z,31.94
2018-08-04T17:49:39.066Z,31.90
2018-08-04T17:52:08.117Z,31.82
2018-08-04T17:54:37.586Z,31.76
2018-08-04T17:57:07.449Z,31.83
2018-08-04T17:59:36.717Z,31.61
2018-08-04T18:02:06.277Z,31.63
2018-08-04T18:04:35.506Z,31.71
2018-08-04T18:07:04.857Z,31.68
2018-08-04T18:09:34.097Z,31.56
2018-08-04T18:12:03.058Z,31.47
2018-08-04T18:14:32.282Z,31.40
2018-08-04T18:17:01.792Z,31.28
2018-08-04T18:19:30.882Z,31.32
2018-08-04T18:22:00.176Z,31.26
2018-08-04T18:24:29.482Z,31.30
2018-08-04T18:26:59.000Z,31.16
2018-08-04T18:29:28.115Z,31.13
2018-08-04T18:31:58.072Z,31.02
2018-08-04T18:34:27.167Z,30.93
2018-08-04T18:36:56.858Z,30.98
2018-08-04T18:39:26.487Z,30.79
2018-08-04T18:41:55.515Z,30.88
2018-08-04T18:44:24.943Z,30.72
2018-08-04T18:46:54.386Z,30.75
2018-08-04T18:49:23.844Z,30.78
2018-08-04T18:51:53.466Z,30.64
2018-08-04T18:54:22.558Z,30.48
2018-08-04T18:56:52.232Z,30.58
2018-08-04T18:59:21.326Z,30.60
2018-08-04T19:01:50.484Z,30.35
2018-08-04T19:04:20.052Z,30.43
2018-08-04T19:06:49.303Z,30.34
2018-08-04T19:09:18.712Z,30.34
2018-08-04T19:11:48.098Z,30.32
2018-08-04T19:14:17.361Z,30.26
2018-08-04T19:16:46.815Z,30.14
2018-08-04T19:19:15.958Z,30.10
2018-08-04T19:21:45.013Z,30.06
2018-08-04T19:24:13.998Z,30.04
2018-08-04T19:26:43.242Z,29.97
2018-08-04T19:29:12.545Z,30.09
2018-08-04T19:31:42.166Z,29.97
2018-08-04T19:34:11.118Z,29.88
2018-08-04T19:36:40.300Z,29.77
2018-08-04T19:39:10.788Z,29.61
2018-08-04T19:41:40.106Z,29.61
2018-08-04T19:44:09.877Z,29.42
2018-08-04T19:46:39.402Z,29.46
2018-08-04T19:49:08.831Z,29.39
2018-08-04T19:51:38.062Z,29.32
2018-08-04T19:54:07.164Z,29.29
2018-08-04T19:56:36.734Z,29.25
2018-08-04T19:59:06.265Z,29.10
2018-08-04T20:01:35.686Z,29.00
2018-08-04T20:04:05.231Z,29.00
2018-08-04T20:06:34.683Z,28.94
2018-08-04T20:09:04.671Z,28.86
2018-08-04T20:11:33.913Z,28.96
2018-08-04T20:14:02.862Z,28.83
2018-08-04T20:16:32.390Z,28.76
2018-08-04T20:19:02.100Z,28.82
2018-08-04T20:21:31.590Z,28.74
2018-08-04T20:24:01.648Z,28.61
2018-08-04T20:26:31.463Z,28.52
2018-08-04T20:29:00.671Z,28.37
2018-08-04T20:31:29.706Z,28.52
2018-08-04T20:33:58.883Z,28.47
2018-08-04T20:36:28.134Z,28.43
2018-08-04T20:38:57.078Z,28.27
2018-08-04T20:41:26.366Z,28.22
2018-08-04T20:43:55.626Z,28.21
2018-08-04T20:46:24.975Z,28.13
2018-08-04T20:48:54.427Z,28.05
2018-08-04T20:51:23.550Z,28.04
2018-08-04T20:53:52.599Z,28.04
2018-08-04T20:56:21.770Z,27.92
2018-08-04T20:58:50.993Z,27.76
2018-08-04T21:01:34.062Z,27.81
2018-08-04T21:04:03.170Z,27.82
2018-08-04T21:06:32.426Z,27.85
2018-08-04T21:09:01.518Z,27.70
2018-08-04T21:11:31.032Z,27.67
2018-08-04T21:14:00.118Z,27.58
2018-08-04T21:16:29.622Z,27.59
2018-08-04T21:18:58.744Z,27.49
2018-08-04T21:21:27.802Z,27.60
2018-08-04T21:23:56.738Z,27.50
2018-08-04T21:26:25.998Z,27.36
2018-08-04T21:28:55.902Z,27.32
2018-08-04T21:31:25.007Z,27.27
2018-08-04T21:33:54.168Z,27.27
2018-08-04T21:36:23.411Z,27.26
2018-08-04T21:38:52.515Z,27.20
2018-08-04T21:41:21.899Z,27.08
2018-08-04T21:43:51.106Z,27.04
2018-08-04T21:46:20.185Z,27.07
2018-08-04T21:48:49.131Z,27.04
2018-08-04T21:51:18.166Z,26.90
2018-08-04T21:53:47.317Z,26.83
2018-08-04T21:56:16.355Z,26.93
2018-08-04T21:58:45.499Z,26.79
2018-08-04T22:01:15.618Z,26.83
2018-08-04T22:03:45.642Z,27.00
2018-08-04T22:06:16.027Z,26.84
2018-08-04T22:08:56.252Z,26.88
2018-08-04T22:11:25.254Z,26.56
2018-08-04T22:13:54.375Z,26.72
2018-08-04T22:16:23.471Z,26.70
2018-08-04T22:18:53.445Z,26.52
2018-08-04T22:21:22.684Z,26.45
2018-08-04T22:23:51.789Z,26.48
2018-08-04T22:26:21.088Z,26.38
2018-08-04T22:28:50.583Z,26.41
2018-08-04T22:31:20.083Z,26.25
2018-08-04T22:33:49.198Z,26.26
2018-08-04T22:36:18.869Z,26.31
2018-08-04T22:38:48.419Z,26.25
2018-08-04T22:41:18.200Z,26.41
2018-08-04T22:43:47.895Z,26.49
2018-08-04T22:46:18.011Z,26.37
2018-08-04T22:48:48.677Z,26.18
2018-08-04T22:51:27.830Z,26.12
2018-08-04T22:53:57.320Z,25.93
2018-08-04T22:56:27.164Z,26.06
2018-08-04T22:58:56.324Z,26.14
2018-08-04T23:01:25.598Z,25.95
2018-08-04T23:03:54.517Z,25.87
2018-08-04T23:06:25.314Z,25.71
2018-08-04T23:08:55.104Z,25.71
2018-08-04T23:11:24.292Z,25.57
2018-08-04T23:13:53.318Z,25.71
2018-08-04T23:16:22.626Z,25.72
2018-08-04T23:18:51.579Z,25.40
2018-08-04T23:21:20.762Z,25.34
2018-08-04T23:23:50.096Z,25.43
2018-08-04T23:26:20.131Z,25.40
2018-08-04T23:28:49.139Z,25.41
2018-08-04T23:31:18.107Z,25.31
2018-08-04T23:33:47.123Z,25.24
2018-08-04T23:36:16.047Z,25.24
2018-08-04T23:38:44.952Z,25.15
2018-08-04T23:41:13.886Z,25.17
2018-08-04T23:43:42.790Z,25.10
2018-08-04T23:46:11.735Z,25.00
2018-08-04T23:48:40.620Z,25.01
2018-08-04T23:51:09.565Z,25.03
2018-08-04T23:53:38.496Z,24.94
2018-08-04T23:56:07.454Z,24.98
2018-08-04T23:58:36.407Z,25.03
